createdAt,value
2023-04-27T00:03:06.505Z,99321.47
2023-04-27T00:07:09.883Z,99325.91
2023-04-27T00:11:13.056Z,99323.28
2023-04-27T00:15:17.334Z,99325.69
2023-04-27T00:19:22.905Z,99329.13
2023-04-27T00:23:26.597Z,99316.44
2023-04-27T00:27:29.397Z,99318.19
2023-04-27T00:31:34.232Z,99310.38
2023-04-27T00:35:37.125Z,99313.97
2023-04-27T00:39:40.425Z,99317.63
2023-04-27T00:43:44.694Z,99308.31
2023-04-27T00:47:49.212Z,99300.50
2023-04-27T00:51:52.133Z,99306.75
2023-04-27T00:55:55.949Z,99306.31
2023-04-27T00:59:58.954Z,99295.50
2023-04-27T01:04:03.509Z,99309.00
2023-04-27T01:08:06.851Z,99312.59
2023-04-27T01:12:10.079Z,99313.16
2023-04-27T01:16:13.020Z,99321.44
2023-04-27T01:20:17.668Z,99324.50
2023-04-27T01:24:22.072Z,99325.84
2023-04-27T01:28:24.935Z,99313.59
2023-04-27T01:32:28.000Z,99314.19
2023-04-27T01:36:32.067Z,99318.41
2023-04-27T01:40:36.796Z,99310.91
2023-04-27T01:44:39.805Z,99314.75
2023-04-27T01:48:52.308Z,99307.69
2023-04-27T01:52:55.818Z,99302.47
2023-04-27T01:57:00.177Z,99308.25
2023-04-27T02:01:03.831Z,99303.03
2023-04-27T02:05:07.286Z,99308.72
2023-04-27T02:09:10.559Z,99314.56
2023-04-27T02:13:14.785Z,99304.16
2023-04-27T02:17:17.646Z,99317.00
2023-04-27T02:21:21.334Z,99318.81
2023-04-27T02:25:24.384Z,99308.31
2023-04-27T02:29:32.662Z,99313.50
2023-04-27T02:33:36.126Z,99309.91
2023-04-27T02:37:57.306Z,99313.69
2023-04-27T02:42:00.125Z,99310.09
2023-04-27T02:46:05.845Z,99321.22
2023-04-27T02:50:09.862Z,99321.63
2023-04-27T02:54:12.948Z,99317.00
2023-04-27T02:58:16.711Z,99326.06
2023-04-27T03:02:21.032Z,99320.81
2023-04-27T03:06:23.917Z,99320.03
2023-04-27T03:10:26.714Z,99319.84
2023-04-27T03:14:29.814Z,99314.63
2023-04-27T03:18:34.080Z,99312.63
2023-04-27T03:22:37.172Z,99303.53
2023-04-27T03:26:39.973Z,99314.22
2023-04-27T03:30:42.903Z,99313.44
2023-04-27T03:34:47.674Z,99303.56
2023-04-27T03:39:01.705Z,99309.63
2023-04-27T03:43:04.999Z,99300.91
2023-04-27T03:47:09.740Z,99309.81
2023-04-27T03:51:14.270Z,99316.84
2023-04-27T03:55:17.098Z,99328.31
2023-04-27T03:59:19.997Z,99321.69
2023-04-27T04:03:22.996Z,99320.09
2023-04-27T04:07:27.859Z,99317.84
2023-04-27T04:11:30.692Z,99321.22
2023-04-27T04:15:33.638Z,99320.47
2023-04-27T04:19:38.551Z,99323.28
2023-04-27T04:23:42.858Z,99322.88
2023-04-27T04:27:45.508Z,99335.06
2023-04-27T04:31:56.996Z,99322.41
2023-04-27T04:35:59.835Z,99333.06
2023-04-27T04:40:09.531Z,99331.09
2023-04-27T04:44:12.277Z,99344.09
2023-04-27T04:48:24.797Z,99344.41
2023-04-27T04:52:27.936Z,99338.13
2023-04-27T04:56:32.200Z,99352.97
2023-04-27T05:00:35.275Z,99353.28
2023-04-27T05:04:38.104Z,99363.22
2023-04-27T05:08:50.317Z,99361.63
2023-04-27T05:12:55.096Z,99363.06
2023-04-27T05:16:58.250Z,99366.25
2023-04-27T05:21:01.448Z,99369.59
2023-04-27T05:25:04.864Z,99364.34
2023-04-27T05:29:09.103Z,99370.16
2023-04-27T05:33:12.002Z,99358.00
2023-04-27T05:37:14.949Z,99361.59
2023-04-27T05:41:17.827Z,99360.50
2023-04-27T05:45:22.829Z,99372.44
2023-04-27T05:49:26.780Z,99372.19
2023-04-27T05:53:31.034Z,99378.13
2023-04-27T05:57:33.911Z,99381.38
2023-04-27T06:01:38.256Z,99376.13
2023-04-27T06:05:41.156Z,99372.06
2023-04-27T06:09:44.002Z,99373.34
2023-04-27T06:13:47.021Z,99359.03
2023-04-27T06:17:51.376Z,99366.50
2023-04-27T06:21:54.944Z,99367.91
2023-04-27T06:25:58.937Z,99375.97
2023-04-27T06:30:02.227Z,99382.06
2023-04-27T06:34:07.191Z,99392.03
2023-04-27T06:38:10.318Z,99378.72
2023-04-27T06:42:13.447Z,99393.09
2023-04-27T06:46:16.651Z,99393.81
2023-04-27T06:50:20.852Z,99386.63
2023-04-27T06:54:23.734Z,99389.06
2023-04-27T06:58:27.104Z,99382.78
2023-04-27T07:02:30.125Z,99375.84
2023-04-27T07:06:34.552Z,99374.41
2023-04-27T07:10:37.505Z,99379.13
2023-04-27T07:14:40.613Z,99382.56
2023-04-27T07:18:43.723Z,99376.13
2023-04-27T07:22:48.017Z,99375.44
2023-04-27T07:26:50.793Z,99378.63
2023-04-27T07:30:53.872Z,99378.16
2023-04-27T07:34:57.069Z,99375.84
2023-04-27T07:39:02.388Z,99375.78
2023-04-27T07:43:05.587Z,99373.41
2023-04-27T07:47:08.407Z,99373.41
2023-04-27T07:51:11.336Z,99363.69
2023-04-27T07:55:16.347Z,99370.44
2023-04-27T07:59:19.280Z,99367.75
2023-04-27T08:03:23.005Z,99380.81
2023-04-27T08:07:26.211Z,99383.13
2023-04-27T08:11:30.684Z,99364.72
2023-04-27T08:15:33.394Z,99375.88
2023-04-27T08:19:36.110Z,99363.47
2023-04-27T08:23:39.137Z,99371.09
2023-04-27T08:27:43.614Z,99364.16
2023-04-27T08:31:46.908Z,99355.91
2023-04-27T08:35:49.558Z,99358.59
2023-04-27T08:39:52.609Z,99352.41
2023-04-27T08:43:59.586Z,99350.03
2023-04-27T08:48:02.540Z,99350.56
2023-04-27T08:52:05.388Z,99344.47
2023-04-27T08:56:08.870Z,99350.88
2023-04-27T09:00:15.745Z,99338.41
2023-04-27T09:04:19.883Z,99324.69
2023-04-27T09:08:22.907Z,99340.44
2023-04-27T09:12:25.788Z,99330.44
2023-04-27T09:16:31.068Z,99343.72
2023-04-27T09:20:33.929Z,99344.88
2023-04-27T09:25:02.967Z,99348.22
2023-04-27T09:29:05.748Z,99343.13
2023-04-27T09:33:10.148Z,99341.91
2023-04-27T09:37:14.222Z,99356.06
2023-04-27T09:41:17.192Z,99354.09
2023-04-27T09:45:20.082Z,99354.34
2023-04-27T09:49:26.630Z,99341.75
2023-04-27T09:53:32.109Z,99341.03
2023-04-27T09:57:38.941Z,99338.66
2023-04-27T10:01:46.660Z,99341.13
2023-04-27T10:06:19.520Z,99319.88
2023-04-27T10:10:24.022Z,99325.44
2023-04-27T10:14:29.594Z,99329.53
2023-04-27T10:18:32.735Z,99327.63
2023-04-27T10:22:40.284Z,99330.28
2023-04-27T10:26:48.032Z,99328.56
2023-04-27T10:30:51.961Z,99320.09
2023-04-27T10:35:07.501Z,99317.34
2023-04-27T10:39:27.638Z,99322.88
2023-04-27T10:43:37.097Z,99311.47
2023-04-27T10:47:42.383Z,99306.97
2023-04-27T10:51:45.123Z,99309.09
2023-04-27T10:55:47.916Z,99288.84
2023-04-27T11:00:10.300Z,99301.00
2023-04-27T11:04:13.461Z,99293.41
2023-04-27T11:08:21.149Z,99289.00
2023-04-27T11:12:24.206Z,99289.81
2023-04-27T11:16:29.634Z,99276.84
2023-04-27T11:20:33.553Z,99279.66
2023-04-27T11:24:36.309Z,99267.25
2023-04-27T11:28:38.951Z,99273.94
2023-04-27T11:32:43.400Z,99268.94
2023-04-27T11:36:46.611Z,99276.28
2023-04-27T11:41:00.483Z,99274.75
2023-04-27T11:45:07.137Z,99270.53
2023-04-27T11:49:11.895Z,99272.00
2023-04-27T11:53:30.676Z,99266.81
2023-04-27T11:57:35.051Z,99252.31
2023-04-27T12:01:38.550Z,99252.63
2023-04-27T12:05:50.883Z,99240.34
2023-04-27T12:09:53.669Z,99237.09
2023-04-27T12:13:57.020Z,99223.97
2023-04-27T12:17:59.850Z,99230.38
2023-04-27T12:22:04.630Z,99223.06
2023-04-27T12:26:07.378Z,99222.13
2023-04-27T12:30:10.585Z,99241.22
2023-04-27T12:34:13.864Z,99229.59
2023-04-27T12:38:18.288Z,99224.72
2023-04-27T12:42:24.400Z,99228.03
2023-04-27T12:46:27.428Z,99234.94
2023-04-27T12:50:30.467Z,99223.81
2023-04-27T12:54:36.494Z,99219.78
2023-04-27T12:58:39.996Z,99223.16
2023-04-27T13:02:43.535Z,99224.66
2023-04-27T13:06:46.828Z,99216.28
2023-04-27T13:10:51.092Z,99211.59
2023-04-27T13:14:53.813Z,99216.25
2023-04-27T13:18:56.520Z,99218.88
2023-04-27T13:22:59.428Z,99214.84
2023-04-27T13:27:04.025Z,99217.56
2023-04-27T13:31:07.196Z,99221.16
2023-04-27T13:35:10.778Z,99220.75
2023-04-27T13:39:13.524Z,99223.97
2023-04-27T13:43:17.447Z,99214.00
2023-04-27T13:47:20.339Z,99210.66
2023-04-27T13:51:23.626Z,99213.88
2023-04-27T13:55:26.698Z,99206.47
2023-04-27T13:59:31.481Z,99194.59
2023-04-27T14:03:35.175Z,99196.19
2023-04-27T14:07:38.272Z,99198.53
2023-04-27T14:11:55.084Z,99191.69
2023-04-27T14:16:00.853Z,99188.06
2023-04-27T14:20:05.517Z,99190.09
2023-04-27T14:24:09.383Z,99174.44
2023-04-27T14:28:12.492Z,99178.47
2023-04-27T14:32:16.784Z,99169.97
2023-04-27T14:36:19.627Z,99161.66
2023-04-27T14:40:22.220Z,99157.56
2023-04-27T14:44:25.167Z,99149.53
2023-04-27T14:48:29.418Z,99137.75
2023-04-27T14:52:33.599Z,99146.53
2023-04-27T14:56:36.838Z,99138.00
2023-04-27T15:00:39.778Z,99136.84
2023-04-27T15:04:44.020Z,99136.16
2023-04-27T15:08:47.259Z,99125.00
2023-04-27T15:12:50.076Z,99121.66
2023-04-27T15:16:52.957Z,99126.53
2023-04-27T15:20:57.565Z,99112.75
2023-04-27T15:25:00.428Z,99109.72
2023-04-27T15:29:03.682Z,99108.50
2023-04-27T15:33:09.586Z,99108.09
2023-04-27T15:37:15.203Z,99113.03
2023-04-27T15:41:18.387Z,99122.13
2023-04-27T15:45:21.315Z,99105.44
2023-04-27T15:49:24.068Z,99104.94
2023-04-27T15:53:28.747Z,99100.88
2023-04-27T15:57:41.491Z,99102.78
2023-04-27T16:01:44.352Z,99107.47
2023-04-27T16:05:47.145Z,99109.22
2023-04-27T16:09:51.363Z,99111.75
2023-04-27T16:13:54.151Z,99102.88
2023-04-27T16:17:57.009Z,99091.44
2023-04-27T16:22:04.091Z,99086.75
2023-04-27T16:26:08.340Z,99093.28
2023-04-27T16:30:11.490Z,99084.19
2023-04-27T16:34:14.391Z,99087.66
2023-04-27T16:38:19.041Z,99085.44
2023-04-27T16:42:23.203Z,99078.94
2023-04-27T16:46:26.032Z,99066.69
2023-04-27T16:50:31.556Z,99058.53
2023-04-27T16:54:34.310Z,99062.03
2023-04-27T16:58:38.605Z,99064.41
2023-04-27T17:02:43.760Z,99052.00
2023-04-27T17:06:48.438Z,99054.78
2023-04-27T17:10:52.000Z,99058.78
2023-04-27T17:15:03.224Z,99048.16
2023-04-27T17:19:06.395Z,99048.81
2023-04-27T17:23:09.074Z,99052.88
2023-04-27T17:27:12.515Z,99056.41
2023-04-27T17:31:26.072Z,99043.78
2023-04-27T17:35:28.895Z,99034.97
2023-04-27T17:39:31.733Z,99046.06
2023-04-27T17:43:34.550Z,99043.09
2023-04-27T17:47:39.791Z,99037.44
2023-04-27T17:51:42.552Z,99038.94
2023-04-27T17:55:47.589Z,99050.50
2023-04-27T17:59:50.924Z,99032.34
2023-04-27T18:03:55.164Z,99048.81
2023-04-27T18:08:03.914Z,99039.72
2023-04-27T18:12:11.346Z,99050.25
2023-04-27T18:16:14.209Z,99052.28
2023-04-27T18:20:18.569Z,99045.53
2023-04-27T18:24:21.510Z,99042.88
2023-04-27T18:28:24.317Z,99036.16
2023-04-27T18:32:44.548Z,99032.97
2023-04-27T18:36:51.980Z,99030.06
2023-04-27T18:40:55.097Z,99027.88
2023-04-27T18:45:00.443Z,99029.59
2023-04-27T18:49:03.818Z,99031.97
2023-04-27T18:53:07.952Z,99025.88
2023-04-27T18:57:10.925Z,99027.13
2023-04-27T19:01:19.830Z,99016.28
2023-04-27T19:05:34.905Z,99001.69
2023-04-27T19:09:39.266Z,99001.44
2023-04-27T19:13:58.681Z,99011.25
2023-04-27T19:18:29.705Z,99031.19
2023-04-27T19:22:34.426Z,99031.44
2023-04-27T19:26:39.344Z,99030.06
2023-04-27T19:30:42.378Z,99026.00
2023-04-27T19:34:45.350Z,99024.78
2023-04-27T19:38:48.255Z,99027.41
2023-04-27T19:42:52.535Z,99030.47
2023-04-27T19:46:55.490Z,99030.00
2023-04-27T19:51:10.573Z,99029.38
2023-04-27T19:55:13.829Z,99025.06
2023-04-27T19:59:18.241Z,99032.03
2023-04-27T20:03:21.926Z,99024.19
2023-04-27T20:07:24.974Z,99024.69
2023-04-27T20:11:27.982Z,99040.69
2023-04-27T20:15:32.718Z,99034.75
2023-04-27T20:19:36.154Z,99025.31
2023-04-27T20:24:13.082Z,99017.84
2023-04-27T20:28:16.808Z,99026.38
2023-04-27T20:32:20.917Z,99028.94
2023-04-27T20:36:24.635Z,99015.28
2023-04-27T20:40:27.452Z,99030.53
2023-04-27T20:44:32.320Z,99011.59
2023-04-27T20:48:37.462Z,99013.75
2023-04-27T20:52:40.455Z,99011.22
2023-04-27T20:56:43.677Z,99003.34
2023-04-27T21:00:46.724Z,98995.81
2023-04-27T21:04:51.378Z,99002.91
2023-04-27T21:08:54.391Z,98986.44
2023-04-27T21:12:57.471Z,98992.09
2023-04-27T21:17:00.355Z,98986.53
2023-04-27T21:21:22.215Z,98975.38
2023-04-27T21:25:25.381Z,98967.16
2023-04-27T21:29:28.808Z,98967.97
2023-04-27T21:33:32.173Z,98962.16
2023-04-27T21:37:36.500Z,98968.91
2023-04-27T21:41:39.931Z,98972.19
2023-04-27T21:45:42.732Z,98965.50
2023-04-27T21:49:45.792Z,98970.09
2023-04-27T21:53:50.099Z,98960.56
2023-04-27T21:57:52.865Z,98972.59
2023-04-27T22:02:21.111Z,98970.09
2023-04-27T22:06:24.020Z,98960.00
2023-04-27T22:10:29.182Z,98946.56
2023-04-27T22:14:32.013Z,98948.28
2023-04-27T22:18:34.905Z,98936.47
2023-04-27T22:22:38.030Z,98935.59
2023-04-27T22:26:42.662Z,98930.28
2023-04-27T22:30:45.496Z,98936.06
2023-04-27T22:34:48.451Z,98943.94
2023-04-27T22:38:51.446Z,98955.13
2023-04-27T22:42:56.346Z,98958.97
2023-04-27T22:47:00.777Z,98954.63
2023-04-27T22:51:03.763Z,98956.69
2023-04-27T22:55:07.642Z,98946.50
2023-04-27T22:59:12.625Z,98941.13
2023-04-27T23:03:38.074Z,98945.03
2023-04-27T23:07:42.825Z,98952.25
2023-04-27T23:11:46.162Z,98973.84
2023-04-27T23:15:50.855Z,98974.31
2023-04-27T23:19:54.402Z,98951.03
2023-04-27T23:23:57.251Z,98947.88
2023-04-27T23:28:00.321Z,98937.94
2023-04-27T23:32:05.702Z,98938.94
2023-04-27T23:36:09.552Z,98929.56
2023-04-27T23:40:13.213Z,98917.97
2023-04-27T23:44:16.784Z,98933.66
2023-04-27T23:48:21.620Z,98929.63
2023-04-27T23:52:36.024Z,98922.66
2023-04-27T23:56:39.256Z,98909.38
